createdAt,value
2022-11-03T00:00:31.130Z,100040.09
2022-11-03T00:01:02.646Z,100037.06
2022-11-03T00:01:34.204Z,100040.91
2022-11-03T00:02:05.862Z,100047.47
2022-11-03T00:02:37.499Z,100046.16
2022-11-03T00:03:09.468Z,100037.66
2022-11-03T00:03:41.082Z,100038.47
2022-11-03T00:04:12.552Z,100042.00
2022-11-03T00:04:43.990Z,100039.28
2022-11-03T00:05:15.432Z,100040.38
2022-11-03T00:05:46.863Z,100037.66
2022-11-03T00:06:18.266Z,100029.75
2022-11-03T00:06:49.718Z,100026.72
2022-11-03T00:07:21.195Z,100030.78
2022-11-03T00:07:52.722Z,100032.69
2022-11-03T00:08:24.130Z,100030.78
2022-11-03T00:08:55.541Z,100029.16
2022-11-03T00:09:27.254Z,100024.50
2022-11-03T00:09:58.934Z,100022.28
2022-11-03T00:10:30.346Z,100028.56
2022-11-03T00:11:01.728Z,100021.16
2022-11-03T00:11:33.175Z,100019.53
2022-11-03T00:12:04.649Z,100026.63
2022-11-03T00:12:36.303Z,100009.72
2022-11-03T00:13:07.919Z,100011.13
2022-11-03T00:13:39.654Z,100011.94
2022-11-03T00:14:11.057Z,100008.09
2022-11-03T00:14:42.470Z,100014.38
2022-11-03T00:15:13.965Z,100022.66
2022-11-03T00:15:45.353Z,100020.16
2022-11-03T00:16:16.748Z,100019.94
2022-11-03T00:16:48.221Z,100007.88
2022-11-03T00:17:19.564Z,100001.91
2022-11-03T00:17:51.056Z,100001.59
2022-11-03T00:18:22.528Z,100002.72
2022-11-03T00:18:53.928Z,99999.16
2022-11-03T00:19:25.383Z,99998.06
2022-11-03T00:19:56.795Z,100014.16
2022-11-03T00:20:28.176Z,100021.84
2022-11-03T00:20:59.611Z,100005.44
2022-11-03T00:21:31.042Z,100010.91
2022-11-03T00:22:02.597Z,100012.53
2022-11-03T00:22:34.073Z,100013.66
2022-11-03T00:23:05.878Z,100010.63
2022-11-03T00:23:37.483Z,100005.16
2022-11-03T00:24:08.921Z,100014.97
2022-11-03T00:24:40.366Z,100012.53
2022-11-03T00:25:11.818Z,100005.97
2022-11-03T00:25:43.240Z,100009.28
2022-11-03T00:26:14.708Z,100010.91
2022-11-03T00:26:46.148Z,100009.59
2022-11-03T00:27:17.657Z,100008.19
2022-11-03T00:27:49.330Z,100016.69
2022-11-03T00:28:20.888Z,100005.44
2022-11-03T00:28:52.414Z,100012.31
2022-11-03T00:29:23.930Z,100010.91
2022-11-03T00:29:55.357Z,100015.06
2022-11-03T00:30:26.828Z,100012.53
2022-11-03T00:30:58.258Z,100019.94
2022-11-03T00:31:29.798Z,100001.59
2022-11-03T00:32:01.242Z,100008.19
2022-11-03T00:32:32.683Z,100007.06
2022-11-03T00:33:04.368Z,100009.81
2022-11-03T00:33:36.156Z,100013.34
2022-11-03T00:34:07.607Z,100012.53
2022-11-03T00:34:39.067Z,100014.97
2022-11-03T00:35:10.475Z,100017.72
2022-11-03T00:35:41.878Z,100019.63
2022-11-03T00:36:13.558Z,100021.84
2022-11-03T00:36:45.143Z,100015.56
2022-11-03T00:37:16.695Z,100018.00
2022-11-03T00:37:48.226Z,100027.00
2022-11-03T00:38:19.708Z,100016.09
2022-11-03T00:38:51.399Z,100008.91
2022-11-03T00:39:22.868Z,100013.88
2022-11-03T00:39:54.432Z,100009.22
2022-11-03T00:40:25.865Z,100006.47
2022-11-03T00:40:59.431Z,100012.47
2022-11-03T00:41:30.874Z,100009.72
2022-11-03T00:42:02.359Z,100009.72
2022-11-03T00:42:33.869Z,100009.72
2022-11-03T00:43:05.554Z,100017.63
2022-11-03T00:43:37.176Z,100009.13
2022-11-03T00:44:08.621Z,100006.41
2022-11-03T00:44:40.166Z,100000.94
2022-11-03T00:45:11.668Z,100003.38
2022-11-03T00:45:43.095Z,100003.06
2022-11-03T00:46:14.528Z,100008.31
2022-11-03T00:46:46.122Z,100007.50
2022-11-03T00:47:21.617Z,100002.03
2022-11-03T00:47:55.736Z,100001.59
2022-11-03T00:48:27.217Z,99999.59
2022-11-03T00:48:58.701Z,100005.88
2022-11-03T00:49:30.108Z,100002.03
2022-11-03T00:50:01.784Z,100002.13
2022-11-03T00:50:33.435Z,100009.50
2022-11-03T00:51:05.070Z,100001.25
2022-11-03T00:51:36.650Z,100002.50
2022-11-03T00:52:08.113Z,100001.91
2022-11-03T00:52:39.554Z,99998.75
2022-11-03T00:53:11.083Z,100004.81
2022-11-03T00:53:42.558Z,100002.38
2022-11-03T00:54:14.263Z,99999.63
2022-11-03T00:54:46.190Z,99995.56
2022-11-03T00:55:19.399Z,99999.63
2022-11-03T00:55:50.868Z,99996.38
2022-11-03T00:56:22.323Z,99992.47
2022-11-03T00:56:53.758Z,100005.53
2022-11-03T00:57:25.191Z,100000.16
2022-11-03T00:57:56.594Z,100007.47
2022-11-03T00:58:28.044Z,100008.03
2022-11-03T00:58:59.529Z,100001.75
2022-11-03T00:59:30.961Z,100007.22
2022-11-03T01:00:05.633Z,100001.25
2022-11-03T01:00:37.209Z,99989.50
2022-11-03T01:01:08.782Z,100002.34
2022-11-03T01:01:45.357Z,99998.53
2022-11-03T01:02:18.438Z,99999.34
2022-11-03T01:02:50.077Z,99997.94
2022-11-03T01:03:21.713Z,99991.44
2022-11-03T01:03:53.277Z,100002.72
2022-11-03T01:04:24.693Z,100000.81
2022-11-03T01:04:56.102Z,100006.28
2022-11-03T01:05:27.576Z,100001.31
2022-11-03T01:05:59.036Z,100001.03
2022-11-03T01:06:30.507Z,99999.13
2022-11-03T01:07:01.969Z,99998.28
2022-11-03T01:07:33.381Z,99995.06
2022-11-03T01:08:04.791Z,99995.66
2022-11-03T01:08:36.210Z,99995.41
2022-11-03T01:09:07.597Z,99996.38
2022-11-03T01:09:39.113Z,99993.66
2022-11-03T01:10:10.495Z,100003.25
2022-11-03T01:10:41.926Z,100001.03
2022-11-03T01:11:13.307Z,100001.84
2022-11-03T01:11:44.774Z,99995.78
2022-11-03T01:12:16.168Z,99994.97
2022-11-03T01:12:47.575Z,100003.69
2022-11-03T01:13:19.006Z,100000.97
2022-11-03T01:13:50.433Z,99998.81
2022-11-03T01:14:21.811Z,100003.19
2022-11-03T01:14:53.261Z,100004.88
2022-11-03T01:15:24.645Z,100003.53
2022-11-03T01:15:56.094Z,99997.78
2022-11-03T01:16:27.615Z,99996.91
2022-11-03T01:16:59.010Z,99994.75
2022-11-03T01:17:30.458Z,99994.97
2022-11-03T01:18:01.872Z,99999.84
2022-11-03T01:18:33.303Z,99998.81
2022-11-03T01:19:04.684Z,99994.16
2022-11-03T01:19:36.057Z,99996.59
2022-11-03T01:20:07.505Z,99987.00
2022-11-03T01:20:38.924Z,99996.47
2022-11-03T01:21:10.365Z,99995.94
2022-11-03T01:21:41.846Z,99982.66
2022-11-03T01:22:13.298Z,99996.09
2022-11-03T01:22:44.825Z,99997.72
2022-11-03T01:23:16.254Z,99995.28
2022-11-03T01:23:47.691Z,99994.38
2022-11-03T01:24:19.100Z,99990.78
2022-11-03T01:24:50.509Z,99991.06
2022-11-03T01:25:21.989Z,99987.75
2022-11-03T01:25:53.390Z,99990.56
2022-11-03T01:26:24.881Z,99987.31
2022-11-03T01:26:56.351Z,99991.59
2022-11-03T01:27:27.751Z,99986.41
2022-11-03T01:27:59.196Z,99990.03
2022-11-03T01:28:30.688Z,99987.59
2022-11-03T01:29:02.090Z,99983.47
2022-11-03T01:29:33.484Z,99982.94
2022-11-03T01:30:05.353Z,99974.38
2022-11-03T01:30:36.771Z,99984.50
2022-11-03T01:31:08.209Z,99976.53
2022-11-03T01:31:39.716Z,99980.66
2022-11-03T01:32:11.141Z,99984.13
2022-11-03T01:32:42.554Z,99978.88
2022-11-03T01:33:14.064Z,99977.78
2022-11-03T01:33:45.465Z,99982.13
2022-11-03T01:34:16.887Z,99978.56
2022-11-03T01:34:48.479Z,99979.41
2022-11-03T01:35:19.902Z,99972.31
2022-11-03T01:35:51.360Z,99978.66
2022-11-03T01:36:22.924Z,99977.47
2022-11-03T01:36:54.633Z,99976.06
2022-11-03T01:37:26.143Z,99978.28
2022-11-03T01:37:57.612Z,99977.78
2022-11-03T01:38:29.028Z,99975.84
2022-11-03T01:39:00.472Z,99969.78
2022-11-03T01:39:31.925Z,99976.88
2022-11-03T01:41:34.551Z,99977.47
2022-11-03T01:42:12.075Z,99973.63
2022-11-03T01:42:56.712Z,99974.44
2022-11-03T01:44:19.772Z,99971.72
2022-11-03T01:44:58.720Z,99968.16
2022-11-03T01:45:41.234Z,99973.13
2022-11-03T01:47:03.488Z,99970.97
2022-11-03T01:47:40.083Z,99966.31
2022-11-03T01:48:16.381Z,99963.50
2022-11-03T01:48:59.285Z,99963.81
2022-11-03T01:49:35.376Z,99974.75
2022-11-03T01:50:12.768Z,99963.50
2022-11-03T01:50:57.729Z,99959.38
2022-11-03T01:51:34.925Z,99961.06
2022-11-03T01:52:11.601Z,99956.94
2022-11-03T01:52:51.200Z,99961.69
2022-11-03T01:53:31.054Z,99962.84
2022-11-03T01:54:13.326Z,99961.38
2022-11-03T01:54:50.742Z,99958.66
2022-11-03T01:55:27.011Z,99953.91
2022-11-03T01:56:03.365Z,99954.72
2022-11-03T01:56:39.561Z,99954.72
2022-11-03T01:57:15.843Z,99958.13
2022-11-03T01:57:52.418Z,99950.97
2022-11-03T01:58:29.354Z,99944.09
2022-11-03T01:59:08.085Z,99950.97
2022-11-03T01:59:44.171Z,99954.00
2022-11-03T02:00:20.663Z,99946.09
2022-11-03T02:00:57.737Z,99945.56
2022-11-03T02:01:36.447Z,99954.00
2022-11-03T02:02:21.434Z,99944.16
2022-11-03T02:03:08.875Z,99949.41
2022-11-03T02:03:47.118Z,99956.44
2022-11-03T02:04:23.290Z,99948.59
2022-11-03T02:05:00.608Z,99945.50
2022-11-03T02:05:40.754Z,99952.88
2022-11-03T02:06:18.842Z,99942.47
2022-11-03T02:07:51.162Z,99945.13
2022-11-03T02:08:29.494Z,99947.03
2022-11-03T02:09:12.057Z,99941.28
2022-11-03T02:09:52.285Z,99942.91
2022-11-03T02:10:36.555Z,99946.53
2022-11-03T02:11:15.282Z,99941.66
2022-11-03T02:11:55.561Z,99938.09
2022-11-03T02:12:32.316Z,99945.41
2022-11-03T02:13:55.661Z,99932.66
2022-11-03T02:14:32.187Z,99937.31
2022-11-03T02:15:09.365Z,99940.13
2022-11-03T02:15:45.629Z,99936.06
2022-11-03T02:16:22.149Z,99934.13
2022-11-03T02:16:59.014Z,99937.09
2022-11-03T02:17:36.571Z,99940.63
2022-11-03T02:18:15.713Z,99933.97
2022-11-03T02:18:53.558Z,99933.28
2022-11-03T02:19:32.855Z,99938.16
2022-11-03T02:20:09.975Z,99929.88
2022-11-03T02:21:33.233Z,99933.63
2022-11-03T02:22:10.510Z,99919.97
2022-11-03T02:22:47.720Z,99925.84
2022-11-03T02:23:27.764Z,99925.03
2022-11-03T02:24:04.347Z,99924.53
2022-11-03T02:24:43.182Z,99914.91
2022-11-03T02:25:20.173Z,99914.91
2022-11-03T02:27:48.527Z,99913.81
2022-11-03T02:30:48.815Z,99907.22
2022-11-03T02:32:38.047Z,99911.28
2022-11-03T02:33:22.309Z,99900.34
2022-11-03T02:35:15.735Z,99904.50
2022-11-03T02:38:00.810Z,99893.84
2022-11-03T02:38:45.064Z,99896.88
2022-11-03T02:40:26.080Z,99892.22
2022-11-03T02:41:06.438Z,99896.38
2022-11-03T02:43:29.294Z,99883.31
2022-11-03T02:44:13.718Z,99889.81
2022-11-03T02:45:45.602Z,99885.16
2022-11-03T02:46:29.930Z,99879.69
2022-11-03T02:52:30.146Z,99878.97
2022-11-03T02:53:18.316Z,99867.72
2022-11-03T02:54:01.010Z,99865.50
2022-11-03T02:54:52.519Z,99872.09
2022-11-03T02:55:39.528Z,99863.88
2022-11-03T02:56:23.269Z,99866.91
2022-11-03T02:57:08.853Z,99869.03
2022-11-03T03:04:06.201Z,99855.78
2022-11-03T03:04:50.288Z,99856.06
2022-11-03T03:05:58.080Z,99852.44
2022-11-03T03:07:00.241Z,99856.06
2022-11-03T03:07:59.311Z,99853.56
2022-11-03T03:08:43.393Z,99852.84
2022-11-03T03:09:26.527Z,99854.47
2022-11-03T03:10:12.880Z,99852.53
2022-11-03T03:10:57.860Z,99849.00
2022-11-03T03:18:12.614Z,99841.91
2022-11-03T03:18:58.495Z,99844.13
2022-11-03T03:20:47.298Z,99850.09
2022-11-03T03:21:46.316Z,99845.44
2022-11-03T03:25:18.309Z,99845.75
2022-11-03T03:26:23.140Z,99834.00
2022-11-03T03:27:16.555Z,99836.22
2022-11-03T03:28:09.892Z,99831.56
2022-11-03T03:29:03.864Z,99828.53
2022-11-03T04:50:58.713Z,99763.97
2022-11-03T04:51:29.881Z,99756.06
2022-11-03T04:52:01.054Z,99759.91
2022-11-03T04:52:32.253Z,99759.59
2022-11-03T04:53:03.670Z,99756.66
2022-11-03T04:53:35.184Z,99750.91
2022-11-03T04:54:06.685Z,99750.91
2022-11-03T04:54:38.218Z,99754.44
2022-11-03T04:55:09.704Z,99752.81
2022-11-03T04:55:41.089Z,99747.38
2022-11-03T04:56:12.485Z,99748.97
2022-11-03T04:56:43.937Z,99748.47
2022-11-03T04:57:15.386Z,99748.16
2022-11-03T04:57:46.854Z,99745.13
2022-11-03T04:58:18.284Z,99747.88
2022-11-03T04:58:49.678Z,99751.41
2022-11-03T04:59:21.086Z,99740.47
2022-11-03T04:59:52.493Z,99755.75
2022-11-03T05:00:23.921Z,99740.19
2022-11-03T05:00:55.365Z,99746.44
2022-11-03T05:01:27.462Z,99748.69
2022-11-03T05:01:59.139Z,99743.53
2022-11-03T05:02:30.720Z,99750.59
2022-11-03T05:03:02.158Z,99738.88
2022-11-03T05:03:33.685Z,99743.81
2022-11-03T05:04:05.078Z,99742.19
2022-11-03T05:04:36.506Z,99739.47
2022-11-03T05:05:07.935Z,99739.97
2022-11-03T05:05:39.366Z,99730.16
2022-11-03T05:06:10.768Z,99731.78
2022-11-03T05:06:42.199Z,99728.44
2022-11-03T05:07:13.605Z,99739.38
2022-11-03T05:07:45.095Z,99745.44
2022-11-03T05:08:16.530Z,99739.47
2022-11-03T05:08:47.966Z,99722.78
2022-11-03T05:09:19.435Z,99736.44
2022-11-03T05:09:50.882Z,99737.84
2022-11-03T05:10:22.338Z,99738.66
2022-11-03T05:10:53.754Z,99736.75
2022-11-03T05:11:25.196Z,99734.81
2022-11-03T05:11:56.626Z,99741.91
2022-11-03T05:12:28.054Z,99739.47
2022-11-03T05:12:59.412Z,99733.81
2022-11-03T05:13:30.813Z,99732.69
2022-11-03T05:14:02.223Z,99735.72
2022-11-03T05:14:33.749Z,99732.19
2022-11-03T05:15:05.154Z,99738.16
2022-11-03T05:15:36.604Z,99738.47
2022-11-03T05:16:08.009Z,99736.84
2022-11-03T05:16:39.417Z,99736.03
2022-11-03T05:17:10.861Z,99732.19
2022-11-03T05:17:42.333Z,99734.09
2022-11-03T05:18:13.788Z,99732.19
2022-11-03T05:18:45.225Z,99733.00
2022-11-03T05:19:16.600Z,99724.78
2022-11-03T05:19:47.995Z,99728.63
2022-11-03T05:20:19.370Z,99720.13
2022-11-03T05:20:50.770Z,99725.91
2022-11-03T05:21:22.165Z,99732.19
2022-11-03T05:21:53.637Z,99723.19
2022-11-03T05:22:25.042Z,99725.09
2022-11-03T05:22:56.499Z,99729.75
2022-11-03T05:23:27.959Z,99728.34
2022-11-03T05:23:59.372Z,99731.88
2022-11-03T05:24:30.740Z,99724.50
2022-11-03T05:25:02.214Z,99726.72
2022-11-03T05:25:33.722Z,99720.13
2022-11-03T05:26:05.211Z,99711.63
2022-11-03T05:26:36.641Z,99718.72
2022-11-03T05:27:08.019Z,99712.75
2022-11-03T05:27:39.428Z,99712.25
2022-11-03T05:28:10.920Z,99711.44
2022-11-03T05:28:42.321Z,99714.16
2022-11-03T05:29:13.701Z,99713.88
2022-11-03T05:29:45.172Z,99714.38
2022-11-03T05:30:16.554Z,99710.84
2022-11-03T05:30:47.964Z,99714.38
2022-11-03T05:31:19.462Z,99710.53
2022-11-03T05:31:50.921Z,99704.25
2022-11-03T05:32:22.353Z,99714.88
2022-11-03T05:32:53.800Z,99705.06
2022-11-03T05:33:25.409Z,99706.69
2022-11-03T05:33:56.954Z,99712.97
2022-11-03T05:34:28.359Z,99710.53
2022-11-03T05:34:59.833Z,99707.00
2022-11-03T05:35:31.242Z,99703.44
2022-11-03T05:36:02.664Z,99710.13
2022-11-03T05:36:34.050Z,99701.63
2022-11-03T05:37:05.455Z,99704.34
2022-11-03T05:37:36.902Z,99698.59
2022-11-03T05:38:08.555Z,99695.84
2022-11-03T05:38:40.247Z,99698.59
2022-11-03T05:39:11.698Z,99701.81
2022-11-03T05:39:43.138Z,99703.44
2022-11-03T05:40:14.740Z,99698.19
2022-11-03T05:40:46.157Z,99697.97
2022-11-03T05:41:17.584Z,99695.25
2022-11-03T05:41:48.973Z,99693.31
2022-11-03T05:42:20.375Z,99698.50
2022-11-03T05:42:51.784Z,99699.28
2022-11-03T05:43:23.272Z,99699.28
2022-11-03T05:43:54.810Z,99700.09
2022-11-03T05:44:26.217Z,99704.75
2022-11-03T05:44:57.625Z,99694.63
2022-11-03T05:45:28.944Z,99697.97
2022-11-03T05:46:00.529Z,99695.75
2022-11-03T05:46:31.993Z,99696.56
2022-11-03T05:47:05.956Z,99694.13
2022-11-03T05:47:39.754Z,99696.25
2022-11-03T05:48:11.171Z,99695.97
2022-11-03T05:48:42.586Z,99694.34
2022-11-03T05:49:13.994Z,99694.84
2022-11-03T05:49:45.467Z,99694.84
2022-11-03T05:50:16.873Z,99697.28
2022-11-03T05:50:48.305Z,99702.75
2022-11-03T05:51:19.700Z,99694.53
2022-11-03T05:51:51.119Z,99693.72
2022-11-03T05:52:22.497Z,99695.16
2022-11-03T05:52:53.888Z,99687.25
2022-11-03T05:53:25.290Z,99699.00
2022-11-03T05:53:56.746Z,99692.41
2022-11-03T05:54:28.119Z,99695.34
2022-11-03T05:54:59.582Z,99693.72
2022-11-03T05:55:30.981Z,99698.38
2022-11-03T05:56:02.516Z,99694.34
2022-11-03T05:56:34.011Z,99698.38
2022-11-03T05:57:05.425Z,99692.63
2022-11-03T05:57:36.984Z,99692.63
2022-11-03T05:58:08.678Z,99698.38
2022-11-03T05:58:40.263Z,99692.91
2022-11-03T05:59:11.703Z,99697.88
2022-11-03T05:59:43.146Z,99688.88
2022-11-03T06:00:14.541Z,99686.66
2022-11-03T06:00:48.777Z,99687.47
2022-11-03T06:01:20.651Z,99686.44
2022-11-03T06:01:52.185Z,99682.59
2022-11-03T06:02:23.780Z,99680.97
2022-11-03T06:02:55.395Z,99679.06
2022-11-03T06:03:26.890Z,99682.59
2022-11-03T06:03:58.322Z,99684.53
2022-11-03T06:04:29.721Z,99677.94
2022-11-03T06:05:01.142Z,99677.63
2022-11-03T06:05:32.537Z,99671.56
2022-11-03T06:06:03.963Z,99672.69
2022-11-03T06:06:35.363Z,99674.09
2022-11-03T06:07:06.783Z,99671.88
2022-11-03T06:07:38.196Z,99668.03
2022-11-03T06:08:10.065Z,99673.78
2022-11-03T06:08:44.950Z,99669.44
2022-11-03T06:09:17.561Z,99664.78
2022-11-03T06:09:49.010Z,99671.06
2022-11-03T06:10:20.408Z,99671.06
2022-11-03T06:10:51.786Z,99663.97
2022-11-03T06:11:23.240Z,99664.78
2022-11-03T06:11:54.705Z,99664.78
2022-11-03T06:12:26.059Z,99665.59
2022-11-03T06:12:57.408Z,99669.44
2022-11-03T06:13:28.907Z,99667.81
2022-11-03T06:14:00.348Z,99658.00
2022-11-03T06:14:31.836Z,99661.56
2022-11-03T06:15:06.316Z,99662.34
2022-11-03T06:15:37.753Z,99655.59
2022-11-03T06:16:09.146Z,99654.47
2022-11-03T06:16:40.568Z,99658.50
2022-11-03T06:17:12.028Z,99650.31
2022-11-03T06:17:43.445Z,99648.41
2022-11-03T06:18:14.881Z,99652.75
2022-11-03T06:18:46.295Z,99650.00
2022-11-03T06:19:17.667Z,99648.41
2022-11-03T06:19:49.172Z,99648.41
2022-11-03T06:20:20.595Z,99646.97
2022-11-03T06:20:52.070Z,99646.97
2022-11-03T06:21:23.497Z,99650.22
2022-11-03T06:21:54.880Z,99648.09
2022-11-03T06:22:26.389Z,99638.28
2022-11-03T06:22:57.831Z,99642.13
2022-11-03T06:23:29.259Z,99640.50
2022-11-03T06:24:00.677Z,99642.13
2022-11-03T06:24:32.101Z,99635.84
2022-11-03T06:25:03.607Z,99644.03
2022-11-03T06:25:35.021Z,99639.69
2022-11-03T06:26:06.456Z,99643.75
2022-11-03T06:26:37.880Z,99640.50
2022-11-03T06:27:09.307Z,99642.94
2022-11-03T06:27:40.727Z,99648.41
2022-11-03T06:28:12.113Z,99640.50
2022-11-03T06:28:43.893Z,99634.03
2022-11-03T06:29:15.362Z,99640.31
2022-11-03T06:29:46.769Z,99649.00
2022-11-03T06:30:18.201Z,99650.63
2022-11-03T06:30:50.090Z,99643.22
2022-11-03T06:31:23.398Z,99644.66
2022-11-03T06:31:55.095Z,99644.34
2022-11-03T06:32:26.533Z,99638.06
2022-11-03T06:32:57.988Z,99640.00
2022-11-03T06:33:29.417Z,99643.03
2022-11-03T06:34:00.979Z,99645.47
2022-11-03T06:34:32.398Z,99639.50
2022-11-03T06:35:03.782Z,99637.88
2022-11-03T06:35:35.196Z,99642.53
2022-11-03T06:36:06.601Z,99640.59
2022-11-03T06:36:38.036Z,99637.88
2022-11-03T06:37:12.544Z,99634.03
2022-11-03T06:37:45.125Z,99634.03
2022-11-03T06:38:16.593Z,99635.66
2022-11-03T06:38:47.982Z,99648.19
2022-11-03T06:39:19.359Z,99642.22
2022-11-03T06:39:50.798Z,99637.28
2022-11-03T06:40:22.267Z,99637.78
2022-11-03T06:40:53.628Z,99636.16
2022-11-03T06:41:25.010Z,99638.88
2022-11-03T06:41:56.416Z,99635.34
2022-11-03T06:42:31.830Z,99641.63
2022-11-03T06:43:04.051Z,99639.19
2022-11-03T06:43:35.641Z,99642.44
2022-11-03T06:44:07.036Z,99634.53
2022-11-03T06:44:38.511Z,99641.91
2022-11-03T06:45:09.878Z,99643.53
2022-11-03T06:45:41.259Z,99637.28
2022-11-03T06:46:12.706Z,99635.66
2022-11-03T06:46:44.132Z,99637.56
2022-11-03T06:47:15.590Z,99638.69
2022-11-03T06:47:47.044Z,99640.31
2022-11-03T06:48:18.521Z,99636.75
2022-11-03T06:48:49.926Z,99639.81
2022-11-03T06:49:21.328Z,99634.63
2022-11-03T06:49:52.734Z,99630.78
2022-11-03T06:50:24.138Z,99631.00
2022-11-03T06:50:55.509Z,99631.81
2022-11-03T06:51:26.903Z,99631.81
2022-11-03T06:51:58.288Z,99634.53
2022-11-03T06:52:29.668Z,99636.66
2022-11-03T06:53:01.186Z,99641.31
2022-11-03T06:53:32.655Z,99645.16
2022-11-03T06:54:04.134Z,99637.28
2022-11-03T06:54:35.526Z,99636.47
2022-11-03T06:55:10.722Z,99641.13
2022-11-03T06:55:45.277Z,99636.16
2022-11-03T06:56:16.708Z,99631.00
2022-11-03T06:56:48.200Z,99626.84
2022-11-03T06:57:19.573Z,99631.19
2022-11-03T06:57:50.956Z,99629.56
2022-11-03T06:58:22.378Z,99626.53
2022-11-03T06:58:53.869Z,99625.72
2022-11-03T06:59:25.337Z,99620.88
2022-11-03T07:00:06.637Z,99626.84
2022-11-03T07:00:51.278Z,99630.38
2022-11-03T07:01:23.382Z,99619.44
2022-11-03T07:01:54.931Z,99624.91
2022-11-03T07:02:26.604Z,99623.28
2022-11-03T07:02:58.086Z,99622.19
2022-11-03T07:03:29.488Z,99617.03
2022-11-03T07:04:00.997Z,99619.75
2022-11-03T07:04:32.435Z,99608.81
2022-11-03T07:05:03.896Z,99610.44
2022-11-03T07:05:35.266Z,99613.19
2022-11-03T07:06:06.744Z,99613.19
2022-11-03T07:06:38.171Z,99604.16
2022-11-03T07:07:09.605Z,99609.63
2022-11-03T07:07:41.021Z,99614.28
2022-11-03T07:08:12.432Z,99611.25
2022-11-03T07:08:44.110Z,99613.19
2022-11-03T07:09:15.597Z,99604.16
2022-11-03T07:09:47.091Z,99607.41
2022-11-03T07:10:18.487Z,99605.47
2022-11-03T07:10:49.994Z,99607.91
2022-11-03T07:11:21.403Z,99609.03
2022-11-03T07:11:52.848Z,99603.56
2022-11-03T07:12:24.333Z,99613.38
2022-11-03T07:12:55.730Z,99600.53
2022-11-03T07:13:27.171Z,99604.38
2022-11-03T07:13:58.575Z,99607.91
2022-11-03T07:14:30.019Z,99601.63
2022-11-03T07:15:38.361Z,99596.97
2022-11-03T07:16:11.427Z,99591.81
2022-11-03T07:16:44.928Z,99603.56
2022-11-03T07:17:16.380Z,99596.19
2022-11-03T07:17:47.783Z,99596.69
2022-11-03T07:18:19.247Z,99590.72
2022-11-03T07:18:50.662Z,99590.09
2022-11-03T07:19:22.132Z,99584.13
2022-11-03T07:19:53.601Z,99578.97
2022-11-03T07:20:25.009Z,99573.81
2022-11-03T07:20:56.451Z,99576.53
2022-11-03T07:21:27.885Z,99583.63
2022-11-03T07:21:59.290Z,99585.84
2022-11-03T07:22:30.706Z,99576.84
2022-11-03T07:23:02.162Z,99581.19
2022-11-03T07:23:33.708Z,99580.91
2022-11-03T07:24:05.138Z,99582.50
2022-11-03T07:24:36.587Z,99579.28
2022-11-03T07:25:08.051Z,99581.41
2022-11-03T07:25:39.479Z,99575.13
2022-11-03T07:26:10.910Z,99577.03
2022-11-03T07:26:42.325Z,99589.41
2022-11-03T07:27:13.752Z,99577.03
2022-11-03T07:27:45.202Z,99573.19
2022-11-03T07:28:16.609Z,99576.25
2022-11-03T07:28:48.037Z,99575.44
2022-11-03T07:29:19.425Z,99573.00
2022-11-03T07:29:50.913Z,99582.00
2022-11-03T07:30:22.478Z,99565.72
2022-11-03T07:30:53.938Z,99573.31
2022-11-03T07:31:25.406Z,99568.66
2022-11-03T07:31:56.883Z,99568.66
2022-11-03T07:32:28.288Z,99570.28
2022-11-03T07:32:59.677Z,99574.13
2022-11-03T07:33:31.078Z,99571.88
2022-11-03T07:34:02.572Z,99569.16
2022-11-03T07:34:33.977Z,99564.81
2022-11-03T07:35:05.374Z,99572.69
2022-11-03T07:36:00.286Z,99579.78
2022-11-03T07:36:28.174Z,99579.59
2022-11-03T07:36:59.601Z,99579.28
2022-11-03T07:37:31.115Z,99580.41
2022-11-03T07:38:02.562Z,99570.28
2022-11-03T07:38:34.004Z,99571.09
2022-11-03T07:39:05.438Z,99572.69
2022-11-03T07:39:36.837Z,99566.44
2022-11-03T07:40:08.274Z,99571.38
2022-11-03T07:40:39.681Z,99565.13
2022-11-03T07:41:11.061Z,99568.66
2022-11-03T07:41:42.538Z,99561.28
2022-11-03T07:42:13.932Z,99572.50
2022-11-03T07:42:45.328Z,99569.47
2022-11-03T07:43:16.734Z,99562.06
2022-11-03T07:43:48.195Z,99574.63
2022-11-03T07:44:19.629Z,99570.28
2022-11-03T07:44:51.061Z,99567.22
2022-11-03T07:45:22.457Z,99570.59
2022-11-03T07:45:53.880Z,99565.94
2022-11-03T07:46:25.303Z,99568.16
2022-11-03T07:46:56.780Z,99557.22
2022-11-03T07:47:28.198Z,99564.63
2022-11-03T07:48:04.336Z,99567.34
2022-11-03T07:48:36.042Z,99563.50
2022-11-03T07:49:07.467Z,99559.34
2022-11-03T07:49:38.916Z,99567.53
2022-11-03T07:50:10.323Z,99564.81
2022-11-03T07:50:41.752Z,99562.56
2022-11-03T07:51:13.219Z,99557.13
2022-11-03T07:51:44.628Z,99556.63
2022-11-03T07:52:16.113Z,99554.69
2022-11-03T07:52:47.500Z,99558.72
2022-11-03T07:53:23.294Z,99555.19
2022-11-03T07:53:57.222Z,99547.00
2022-11-03T07:54:28.604Z,99547.00
2022-11-03T07:54:59.996Z,99546.38
2022-11-03T07:55:31.471Z,99546.38
2022-11-03T07:56:02.978Z,99549.91
2022-11-03T07:56:34.585Z,99553.75
2022-11-03T07:57:06.148Z,99545.56
2022-11-03T07:57:37.604Z,99551.34
2022-11-03T07:58:09.258Z,99541.53
2022-11-03T07:58:40.916Z,99548.59
2022-11-03T07:59:12.476Z,99549.41
2022-11-03T07:59:43.979Z,99544.56
2022-11-03T08:00:15.440Z,99546.50
2022-11-03T08:00:46.885Z,99545.38
2022-11-03T08:01:18.308Z,99543.44
2022-11-03T08:01:49.981Z,99550.84
2022-11-03T08:02:21.469Z,99552.16
2022-11-03T08:02:53.081Z,99548.59
2022-11-03T08:03:24.649Z,99551.34
2022-11-03T08:03:56.033Z,99543.16
2022-11-03T08:04:27.554Z,99543.16
2022-11-03T08:04:58.948Z,99550.22
2022-11-03T08:05:30.330Z,99547.00
2022-11-03T08:06:03.754Z,99547.19
2022-11-03T08:06:37.496Z,99542.84
2022-11-03T08:07:08.945Z,99545.25
2022-11-03T08:07:40.342Z,99540.91
2022-11-03T08:08:11.744Z,99536.06
2022-11-03T08:08:43.188Z,99547.00
2022-11-03T08:09:14.556Z,99542.66
2022-11-03T08:09:46.062Z,99536.69
2022-11-03T08:10:17.481Z,99539.09
2022-11-03T08:10:48.877Z,99537.19
2022-11-03T08:11:22.124Z,99541.53
2022-11-03T08:11:56.211Z,99540.41
2022-11-03T08:12:27.676Z,99540.41
2022-11-03T08:12:59.086Z,99533.84
2022-11-03T08:13:30.532Z,99537.06
2022-11-03T08:14:01.926Z,99536.56
2022-11-03T08:14:33.351Z,99533.84
2022-11-03T08:15:04.749Z,99531.41
2022-11-03T08:15:36.169Z,99536.56
2022-11-03T08:16:07.666Z,99530.28
2022-11-03T08:16:39.066Z,99535.44
2022-11-03T08:17:10.731Z,99530.28
2022-11-03T08:17:42.145Z,99540.41
2022-11-03T08:18:13.620Z,99530.59
2022-11-03T08:18:45.068Z,99533.34
2022-11-03T08:19:16.544Z,99537.69
2022-11-03T08:19:48.039Z,99528.38
2022-11-03T08:20:19.494Z,99533.53
2022-11-03T08:20:50.933Z,99529.97
2022-11-03T08:21:22.394Z,99529.16
2022-11-03T08:21:53.831Z,99527.56
2022-11-03T08:22:25.341Z,99524.50
2022-11-03T08:23:24.142Z,99525.63
2022-11-03T08:23:48.192Z,99526.75
2022-11-03T08:24:19.659Z,99529.16
2022-11-03T08:24:51.081Z,99529.97
2022-11-03T08:25:22.506Z,99525.63
2022-11-03T08:25:53.989Z,99526.75
2022-11-03T08:26:25.396Z,99539.28
2022-11-03T08:26:56.854Z,99531.09
2022-11-03T08:27:28.254Z,99527.38
2022-11-03T08:27:59.639Z,99527.38
2022-11-03T08:28:31.018Z,99528.97